Time;durP1;ratioP1;P1;durP2;ratioP2;P2;SDS_P1;SDS_P2;PMS_P1;PMS_P2;Temp;Humidity;BMP_temperature;BMP_pressure;BME280_temperature;BME280_humidity;BME280_pressure;Samples;Min_cycle;Max_cycle;Signal;HPM_P1;HPM_P2
2022/09/01 00:00:04;;;;;;;9.17;3.80;;;29.30;99.90;;;;;;5103745;28;20202;-93
2022/09/01 00:02:41;;;;;;;4.88;3.45;;;29.20;99.90;;;;;;5101380;28;20630;-92
2022/09/01 00:05:20;;;;;;;4.93;3.50;;;29.50;99.90;;;;;;5092636;28;20231;-92
2022/09/01 00:07:59;;;;;;;4.80;3.60;;;30.10;99.90;;;;;;5090916;28;20203;-92
2022/09/01 00:10:34;;;;;;;5.18;3.35;;;30.40;99.90;;;;;;5071922;28;20217;-92
2022/09/01 00:13:06;;;;;;;4.38;3.05;;;30.70;99.90;;;;;;5082999;28;20234;-92
2022/09/01 00:15:39;;;;;;;5.05;3.08;;;30.70;99.90;;;;;;5083042;28;20203;-92
2022/09/01 00:18:12;;;;;;;7.35;3.17;;;31.00;99.90;;;;;;5090341;28;20195;-93
2022/09/01 00:20:49;;;;;;;4.00;2.92;;;30.40;99.90;;;;;;5088796;28;20260;-93
2022/09/01 00:23:22;;;;;;;4.97;3.25;;;30.20;99.90;;;;;;5077028;28;20663;-92
2022/09/01 00:25:53;;;;;;;3.65;2.90;;;30.40;99.90;;;;;;5082663;28;20403;-92
2022/09/01 00:28:25;;;;;;;5.00;2.72;;;30.70;99.90;;;;;;5073943;28;20261;-93
2022/09/01 00:31:01;;;;;;;3.00;2.70;;;31.00;99.90;;;;;;5091978;28;20190;-93
2022/09/01 00:33:34;;;;;;;5.38;2.80;;;31.10;99.90;;;;;;5090467;28;20270;-93
2022/09/01 00:36:11;;;;;;;4.55;2.92;;;31.10;99.90;;;;;;5070996;28;20203;-93
2022/09/01 00:38:42;;;;;;;4.10;2.90;;;30.90;99.90;;;;;;5080194;28;20208;-93
2022/09/01 00:41:14;;;;;;;7.43;3.13;;;31.00;99.90;;;;;;5080033;28;20656;-93
2022/09/01 00:43:48;;;;;;;6.32;3.17;;;30.90;99.90;;;;;;5083388;28;20297;-92
2022/09/01 00:46:31;;;;;;;6.18;3.22;;;31.00;99.90;;;;;;5088739;28;20231;-92
2022/09/01 00:49:12;;;;;;;4.78;2.95;;;30.80;99.90;;;;;;5084368;28;20223;-92
2022/09/01 01:02:34;;;;;;;3.15;2.85;;;29.90;99.90;;;;;;5110791;28;20265;-93
2022/09/01 01:05:08;;;;;;;7.00;3.28;;;30.10;99.90;;;;;;5085584;28;20289;-93
2022/09/01 01:07:46;;;;;;;9.73;6.25;;;30.20;99.90;;;;;;5082410;28;20207;-93
2022/09/01 01:10:21;;;;;;;4.05;2.92;;;30.10;99.90;;;;;;5080215;28;20319;-94
2022/09/01 01:13:03;;;;;;;6.90;3.15;;;30.00;99.90;;;;;;5089375;28;20237;-94
2022/09/01 01:18:42;;;;;;;4.97;3.00;;;29.50;99.90;;;;;;5092972;28;20242;-94
2022/09/01 01:24:28;;;;;;;7.78;3.17;;;29.20;99.90;;;;;;5092184;28;20204;-93
2022/09/01 01:27:00;;;;;;;5.28;4.57;;;29.50;99.90;;;;;;5090464;28;20203;-93
2022/09/01 01:29:36;;;;;;;5.97;3.40;;;29.50;99.90;;;;;;5091058;28;20262;-94
2022/09/01 01:41:15;;;;;;;4.30;2.50;;;28.60;99.90;;;;;;5094136;28;20223;-94
2022/09/01 01:43:51;;;;;;;7.43;2.60;;;28.50;99.90;;;;;;5094640;28;20261;-94
2022/09/01 01:49:22;;;;;;;4.73;2.70;;;28.20;99.90;;;;;;5090555;28;20227;-94
2022/09/01 01:51:57;;;;;;;4.63;2.17;;;28.10;99.90;;;;;;5090636;28;20191;-95
2022/09/01 01:54:31;;;;;;;3.20;2.43;;;28.00;99.90;;;;;;5092335;28;20318;-95
2022/09/01 01:57:07;;;;;;;3.50;2.23;;;27.90;99.90;;;;;;5091709;28;20222;-95
2022/09/01 01:59:48;;;;;;;3.70;2.03;;;27.70;99.90;;;;;;5090305;28;20208;-95
2022/09/01 02:02:25;;;;;;;2.40;2.10;;;27.50;99.90;;;;;;5092846;28;20208;-94
2022/09/01 02:07:34;;;;;;;3.67;2.17;;;27.30;99.90;;;;;;5114668;22;20229;-94
2022/09/01 02:10:06;;;;;;;3.20;1.97;;;27.30;99.90;;;;;;5069197;28;20781;-94
2022/09/01 02:12:45;;;;;;;5.43;1.83;;;27.20;99.90;;;;;;5074301;28;20204;-94
2022/09/01 02:38:28;;;;;;;2.37;1.60;;;26.00;99.90;;;;;;5258229;22;20231;-94
2022/09/01 02:47:08;;;;;;;3.70;2.03;;;25.50;99.90;;;;;;5070944;28;20224;-94
2022/09/01 02:50:15;;;;;;;2.23;1.80;;;25.10;99.90;;;;;;5069365;28;20297;-95
2022/09/01 02:52:58;;;;;;;1.93;1.53;;;24.90;99.90;;;;;;5068929;28;20216;-94
2022/09/01 02:55:38;;;;;;;3.33;1.80;;;24.80;99.90;;;;;;5069559;28;20204;-94
2022/09/01 02:58:15;;;;;;;1.93;1.67;;;24.70;99.90;;;;;;5070374;28;20212;-94
2022/09/01 03:00:55;;;;;;;2.20;1.73;;;24.60;99.90;;;;;;5069930;28;20254;-94
2022/09/01 03:03:32;;;;;;;3.60;2.10;;;24.40;99.90;;;;;;5067704;28;20218;-94
2022/09/01 03:06:08;;;;;;;3.70;1.73;;;24.40;99.90;;;;;;5033949;28;20235;-94
2022/09/01 03:08:49;;;;;;;1.80;1.63;;;24.30;99.90;;;;;;5049553;28;20259;-94
2022/09/01 03:11:26;;;;;;;3.77;1.90;;;24.10;99.90;;;;;;5054519;28;20196;-96
2022/09/01 03:22:36;;;;;;;2.73;1.97;;;23.70;99.90;;;;;;5050085;28;20209;-93
2022/09/01 03:28:00;;;;;;;2.27;1.90;;;23.40;99.90;;;;;;5037588;28;20624;-92
2022/09/01 03:30:34;;;;;;;1.87;1.67;;;23.30;99.90;;;;;;5037494;28;20228;-94
2022/09/01 03:33:05;;;;;;;3.20;1.80;;;23.20;99.90;;;;;;5036353;28;20266;-94
2022/09/01 03:35:37;;;;;;;4.23;2.17;;;23.10;99.90;;;;;;5038552;28;20293;-93
2022/09/01 03:38:09;;;;;;;2.53;1.70;;;23.10;99.90;;;;;;5037394;28;20224;-94
2022/09/01 03:40:43;;;;;;;4.17;2.10;;;23.00;99.90;;;;;;5040214;28;20235;-93
2022/09/01 03:43:16;;;;;;;2.70;1.90;;;22.90;99.90;;;;;;5047904;28;20209;-93
2022/09/01 03:45:48;;;;;;;2.53;2.10;;;22.90;99.90;;;;;;5041760;28;20212;-94
2022/09/01 03:48:19;;;;;;;5.57;2.80;;;22.90;99.90;;;;;;5038074;28;20236;-94
2022/09/01 03:50:51;;;;;;;3.53;2.00;;;22.80;99.90;;;;;;5039976;28;20232;-94
2022/09/01 03:53:26;;;;;;;2.63;1.73;;;22.60;99.90;;;;;;5036127;28;20201;-93
2022/09/01 03:56:00;;;;;;;3.03;2.13;;;22.60;99.90;;;;;;5036821;28;20220;-94
2022/09/01 03:58:32;;;;;;;3.10;1.83;;;22.50;99.90;;;;;;5039348;28;20262;-94
2022/09/01 04:01:03;;;;;;;2.10;1.70;;;22.50;99.90;;;;;;5019303;28;20763;-95
2022/09/01 04:03:41;;;;;;;2.63;2.13;;;22.40;99.90;;;;;;5038201;28;20204;-93
2022/09/01 04:06:13;;;;;;;2.33;2.10;;;22.20;99.90;;;;;;5044449;28;20208;-94
2022/09/01 04:08:45;;;;;;;5.03;2.13;;;21.80;99.90;;;;;;5052961;28;20243;-93
2022/09/01 04:11:22;;;;;;;2.63;2.30;;;21.70;99.90;;;;;;5053954;28;20227;-94
2022/09/01 04:13:54;;;;;;;2.70;2.10;;;21.60;99.90;;;;;;5048597;28;20239;-93
2022/09/01 04:19:18;;;;;;;4.13;2.07;;;21.50;99.90;;;;;;5039489;28;20300;-94
2022/09/01 04:21:51;;;;;;;4.87;2.40;;;21.40;99.90;;;;;;5036125;28;20258;-94
2022/09/01 04:24:27;;;;;;;2.80;2.10;;;21.30;99.90;;;;;;5019454;28;20351;-93
2022/09/01 04:27:02;;;;;;;2.40;2.20;;;21.30;99.90;;;;;;5019347;28;20254;-94
2022/09/01 04:29:34;;;;;;;3.47;2.23;;;21.30;99.90;;;;;;5036619;28;20239;-94
2022/09/01 04:32:10;;;;;;;4.57;2.30;;;21.20;99.90;;;;;;5035655;28;20213;-93
2022/09/01 04:34:40;;;;;;;2.90;2.60;;;21.20;99.90;;;;;;5037304;28;20222;-93
2022/09/01 04:37:14;;;;;;;4.10;2.63;;;20.90;99.90;;;;;;5037341;28;20290;-94
2022/09/01 04:39:51;;;;;;;3.63;2.80;;;20.80;99.90;;;;;;5035957;28;20217;-93
2022/09/01 04:42:31;;;;;;;2.50;2.30;;;20.80;99.90;;;;;;5037775;28;20208;-94
2022/09/01 04:45:09;;;;;;;3.33;2.47;;;20.70;99.90;;;;;;5036254;28;20665;-94
2022/09/01 04:47:41;;;;;;;5.10;2.50;;;20.60;99.90;;;;;;5036310;28;20252;-94
2022/09/01 04:50:16;;;;;;;4.23;2.50;;;20.50;99.90;;;;;;5035791;28;20308;-94
2022/09/01 04:55:47;;;;;;;4.17;2.63;;;20.40;99.90;;;;;;5047962;28;20688;-93
2022/09/01 04:58:21;;;;;;;3.50;2.20;;;20.30;99.90;;;;;;5035734;28;20209;-93
2022/09/01 05:00:54;;;;;;;3.70;2.47;;;20.20;99.90;;;;;;5035633;28;20698;-94
2022/09/01 05:03:26;;;;;;;4.10;2.33;;;20.10;99.90;;;;;;5034534;28;20623;-94
2022/09/01 05:06:00;;;;;;;3.77;2.97;;;20.00;99.90;;;;;;5035559;28;20263;-93
2022/09/01 05:08:34;;;;;;;3.80;2.70;;;19.80;99.90;;;;;;5036910;28;20229;-93
2022/09/01 05:11:06;;;;;;;2.83;2.60;;;19.80;99.90;;;;;;5035450;28;20262;-95
2022/09/01 05:13:39;;;;;;;2.73;2.33;;;19.70;99.90;;;;;;5038385;28;20713;-94
2022/09/01 05:16:14;;;;;;;2.90;2.30;;;19.70;99.90;;;;;;5041687;28;20274;-93
2022/09/01 05:18:49;;;;;;;2.17;1.97;;;19.70;99.90;;;;;;5046505;28;20230;-93
2022/09/01 05:21:25;;;;;;;2.80;2.53;;;19.70;99.90;;;;;;5046848;28;20213;-94
2022/09/01 05:23:56;;;;;;;2.90;2.20;;;19.60;99.90;;;;;;5040934;28;20291;-93
2022/09/01 05:26:30;;;;;;;3.80;2.40;;;19.60;99.90;;;;;;5041535;28;20241;-93
2022/09/01 05:29:12;;;;;;;3.43;2.03;;;19.50;99.90;;;;;;5047608;28;20212;-93
2022/09/01 05:31:45;;;;;;;3.33;2.20;;;19.60;99.90;;;;;;5040814;28;20243;-94
2022/09/01 05:34:25;;;;;;;3.67;2.43;;;19.60;99.90;;;;;;5044556;28;20215;-94
2022/09/01 05:36:58;;;;;;;2.90;2.40;;;19.60;99.90;;;;;;5046240;28;20208;-92
2022/09/01 05:39:30;;;;;;;2.53;2.10;;;19.60;99.90;;;;;;5051548;28;20200;-93
2022/09/01 05:42:04;;;;;;;5.57;2.37;;;19.60;99.90;;;;;;5046177;28;20213;-93
2022/09/01 05:44:39;;;;;;;2.50;2.27;;;19.60;99.90;;;;;;5045882;28;20197;-94
2022/09/01 05:47:11;;;;;;;4.10;2.57;;;19.50;99.90;;;;;;5040236;28;20217;-93
2022/09/01 05:49:52;;;;;;;2.97;2.23;;;19.40;99.90;;;;;;5039838;28;20229;-94
2022/09/01 05:52:25;;;;;;;3.00;2.30;;;19.50;99.90;;;;;;5038322;28;20709;-92
2022/09/01 05:54:58;;;;;;;4.83;2.80;;;19.40;99.90;;;;;;5038575;28;20235;-94
2022/09/01 05:57:34;;;;;;;2.80;2.37;;;19.40;99.90;;;;;;5038606;28;20236;-94
2022/09/01 06:00:12;;;;;;;3.23;2.83;;;19.30;99.90;;;;;;5038250;28;20661;-94
2022/09/01 06:02:44;;;;;;;2.60;2.33;;;19.30;99.90;;;;;;5038440;28;20641;-94
2022/09/01 06:05:16;;;;;;;3.57;2.60;;;19.30;99.90;;;;;;5038809;28;20660;-94
2022/09/01 06:07:48;;;;;;;3.07;2.70;;;19.20;99.90;;;;;;5037842;28;20308;-94
2022/09/01 06:10:19;;;;;;;2.67;2.47;;;19.20;99.90;;;;;;5038025;28;20279;-94
2022/09/01 06:12:52;;;;;;;4.43;2.80;;;19.20;99.90;;;;;;5039204;28;20209;-95
2022/09/01 06:15:28;;;;;;;2.97;2.70;;;19.30;99.90;;;;;;5038398;28;20216;-92
2022/09/01 06:17:59;;;;;;;3.97;3.03;;;19.20;99.90;;;;;;5038035;28;20558;-92
2022/09/01 06:20:31;;;;;;;4.30;2.70;;;19.10;99.90;;;;;;5038107;28;20205;-92
2022/09/01 06:23:03;;;;;;;5.23;2.90;;;19.20;99.90;;;;;;5037179;28;20209;-92
2022/09/01 06:25:37;;;;;;;4.33;2.60;;;19.10;99.90;;;;;;5036756;28;20209;-92
2022/09/01 06:28:11;;;;;;;3.47;2.90;;;19.10;99.90;;;;;;5037592;28;20295;-92
2022/09/01 06:30:46;;;;;;;3.63;2.50;;;19.00;99.90;;;;;;5037475;28;20621;-93
2022/09/01 06:33:21;;;;;;;3.90;2.83;;;19.00;99.90;;;;;;5036841;28;20243;-93
2022/09/01 06:35:54;;;;;;;3.23;2.77;;;18.90;99.90;;;;;;5037618;28;20216;-93
2022/09/01 06:38:26;;;;;;;5.33;3.03;;;18.90;99.90;;;;;;5037061;28;20990;-92
2022/09/01 06:41:03;;;;;;;4.57;2.77;;;18.90;99.90;;;;;;5042000;28;20192;-93
2022/09/01 06:43:35;;;;;;;3.50;3.20;;;18.90;99.90;;;;;;5046769;28;20223;-93
2022/09/01 06:46:10;;;;;;;3.67;3.03;;;18.90;99.90;;;;;;5037403;28;20204;-93
2022/09/01 06:48:45;;;;;;;5.13;3.40;;;18.80;99.90;;;;;;5037796;28;20228;-93
2022/09/01 06:51:17;;;;;;;3.97;3.33;;;18.80;99.90;;;;;;5037839;28;20236;-90
2022/09/01 06:53:55;;;;;;;4.03;3.03;;;18.70;99.90;;;;;;5037135;28;20259;-91
2022/09/01 06:56:27;;;;;;;4.27;3.00;;;18.70;99.90;;;;;;5036835;28;20211;-92
2022/09/01 06:59:04;;;;;;;3.00;2.70;;;18.70;99.90;;;;;;5036593;28;20215;-93
2022/09/01 07:01:38;;;;;;;3.20;2.80;;;18.60;99.90;;;;;;5036070;28;20643;-92
2022/09/01 07:04:10;;;;;;;3.33;2.50;;;18.60;99.90;;;;;;5036606;28;20219;-93
2022/09/01 07:06:43;;;;;;;3.20;2.43;;;18.50;99.90;;;;;;5036645;28;20213;-92
2022/09/01 07:09:34;;;;;;;5.27;2.87;;;18.50;99.90;;;;;;5039530;28;20291;-92
2022/09/01 07:12:22;;;;;;;2.83;2.53;;;18.50;99.90;;;;;;5035890;28;20323;-93
2022/09/01 07:14:55;;;;;;;3.20;2.87;;;18.40;99.90;;;;;;5038870;28;20507;-92
2022/09/01 07:17:52;;;;;;;3.40;2.60;;;18.30;99.90;;;;;;5039150;28;20205;-92
2022/09/01 07:20:26;;;;;;;3.23;2.53;;;18.30;99.90;;;;;;5041146;28;20208;-93
2022/09/01 07:22:59;;;;;;;2.60;2.40;;;18.30;99.90;;;;;;5021396;28;20216;-93
2022/09/01 07:25:37;;;;;;;3.17;2.60;;;18.20;99.90;;;;;;5042380;28;20621;-93
2022/09/01 07:28:31;;;;;;;2.93;2.27;;;18.20;99.90;;;;;;5038910;28;20221;-93
2022/09/01 07:31:24;;;;;;;2.77;2.40;;;18.10;99.90;;;;;;5036315;28;20211;-93
2022/09/01 07:34:17;;;;;;;3.77;2.50;;;18.10;99.90;;;;;;5035886;28;20208;-92
2022/09/01 07:37:08;;;;;;;3.87;2.40;;;18.00;99.90;;;;;;5035976;28;20280;-92
2022/09/01 07:40:01;;;;;;;2.90;2.60;;;17.90;99.90;;;;;;5036440;28;20297;-92
2022/09/01 07:42:57;;;;;;;4.10;2.53;;;17.90;99.90;;;;;;5035037;28;20303;-92
2022/09/01 07:45:34;;;;;;;3.13;2.83;;;17.90;99.90;;;;;;5036120;28;20216;-92
2022/09/01 07:48:08;;;;;;;2.80;2.47;;;17.90;99.90;;;;;;5036417;28;20217;-92
2022/09/01 07:50:46;;;;;;;2.90;2.40;;;17.80;99.90;;;;;;5036277;28;20295;-92
2022/09/01 07:53:38;;;;;;;2.57;2.37;;;17.80;99.90;;;;;;5035376;28;20237;-93
2022/09/01 07:56:11;;;;;;;3.00;2.67;;;17.70;99.90;;;;;;5036760;28;20661;-92
2022/09/01 07:58:43;;;;;;;3.60;2.40;;;17.70;99.90;;;;;;5036411;28;20661;-93
2022/09/01 08:01:17;;;;;;;3.63;2.90;;;17.80;99.90;;;;;;5036325;28;20279;-92
2022/09/01 08:03:51;;;;;;;2.87;2.50;;;17.70;99.90;;;;;;5035456;28;20232;-92
2022/09/01 08:06:25;;;;;;;2.97;2.60;;;17.70;99.90;;;;;;5036062;28;20240;-92
2022/09/01 08:08:58;;;;;;;2.40;2.20;;;17.70;99.90;;;;;;5036361;28;20255;-92
2022/09/01 08:11:31;;;;;;;3.87;2.50;;;17.70;99.90;;;;;;5035366;28;20338;-94
2022/09/01 08:14:23;;;;;;;3.80;2.80;;;17.60;99.90;;;;;;5034631;28;20315;-92
2022/09/01 08:16:54;;;;;;;4.03;2.93;;;17.60;99.90;;;;;;5036026;28;20216;-92
2022/09/01 08:19:26;;;;;;;3.80;2.53;;;17.60;99.90;;;;;;5035693;28;20217;-93
2022/09/01 08:22:01;;;;;;;2.87;2.40;;;17.60;99.90;;;;;;5039988;28;20204;-93
2022/09/01 08:24:32;;;;;;;3.77;2.50;;;17.50;99.90;;;;;;5036924;28;20569;-92
2022/09/01 08:27:04;;;;;;;3.70;2.67;;;17.50;99.90;;;;;;5039535;28;20221;-92
2022/09/01 08:29:35;;;;;;;2.63;2.40;;;17.60;99.90;;;;;;5041120;28;20197;-93
2022/09/01 08:32:06;;;;;;;3.80;2.53;;;17.60;99.90;;;;;;5037213;28;20240;-92
2022/09/01 08:34:38;;;;;;;4.77;2.63;;;17.50;99.90;;;;;;5040776;28;20229;-92
2022/09/01 08:37:11;;;;;;;2.60;2.37;;;17.40;99.90;;;;;;5035872;28;20213;-92
2022/09/01 08:39:42;;;;;;;3.23;2.60;;;17.40;99.90;;;;;;5036336;28;20271;-92
2022/09/01 08:42:21;;;;;;;4.40;2.73;;;17.30;99.90;;;;;;5035404;28;20209;-93
2022/09/01 08:44:59;;;;;;;2.83;2.17;;;17.30;99.90;;;;;;5035943;28;20224;-92
2022/09/01 08:47:32;;;;;;;4.43;2.90;;;17.20;99.90;;;;;;5039270;28;20209;-92
2022/09/01 08:50:24;;;;;;;3.07;2.60;;;17.30;99.90;;;;;;5039557;28;20233;-92
2022/09/01 08:53:10;;;;;;;3.97;2.60;;;17.30;99.90;;;;;;5040698;28;20572;-93
2022/09/01 08:55:46;;;;;;;3.83;2.77;;;17.20;99.90;;;;;;5022512;28;20669;-92
2022/09/01 08:58:19;;;;;;;2.53;2.33;;;17.20;99.90;;;;;;5039283;28;20220;-92
2022/09/01 09:00:56;;;;;;;2.83;2.50;;;17.20;99.90;;;;;;5025835;28;20293;-91
2022/09/01 09:03:38;;;;;;;5.97;2.93;;;17.20;99.90;;;;;;5019349;28;20287;-92
2022/09/01 09:06:17;;;;;;;2.53;2.40;;;17.20;99.90;;;;;;5019886;28;20210;-93
2022/09/01 09:09:02;;;;;;;2.83;2.40;;;17.20;99.90;;;;;;5019760;28;20240;-92
2022/09/01 09:12:01;;;;;;;4.20;2.40;;;17.10;99.90;;;;;;5019339;28;20206;-93
2022/09/01 09:14:53;;;;;;;2.80;2.37;;;17.10;99.90;;;;;;5017596;28;20263;-91
2022/09/01 09:17:31;;;;;;;2.80;2.60;;;17.00;99.90;;;;;;5039952;28;20239;-92
2022/09/01 09:20:04;;;;;;;3.37;2.70;;;17.10;99.90;;;;;;5039435;28;20257;-92
2022/09/01 09:22:38;;;;;;;3.13;2.83;;;17.00;99.90;;;;;;5038439;28;20263;-92
2022/09/01 09:25:15;;;;;;;4.37;2.60;;;17.00;99.90;;;;;;5039243;28;20212;-92
2022/09/01 09:27:50;;;;;;;2.70;2.50;;;17.00;99.90;;;;;;5039721;28;20217;-92
2022/09/01 09:30:31;;;;;;;4.13;2.50;;;16.90;99.90;;;;;;5039266;28;20220;-92
2022/09/01 09:33:05;;;;;;;2.83;2.43;;;16.90;99.90;;;;;;5038216;28;20236;-92
2022/09/01 09:35:56;;;;;;;3.37;2.80;;;16.80;99.90;;;;;;5038975;28;20280;-91
2022/09/01 09:38:30;;;;;;;2.93;2.73;;;16.80;99.90;;;;;;5039477;28;20304;-93
2022/09/01 09:41:07;;;;;;;4.00;2.80;;;16.70;99.90;;;;;;5039335;28;20208;-92
2022/09/01 09:43:50;;;;;;;4.20;2.50;;;16.70;99.90;;;;;;5043278;28;20275;-93
2022/09/01 09:46:35;;;;;;;2.70;2.50;;;16.80;99.90;;;;;;5043847;28;20216;-92
2022/09/01 09:49:18;;;;;;;2.70;2.50;;;16.80;99.90;;;;;;5038697;28;20571;-92
2022/09/01 09:52:17;;;;;;;2.57;2.37;;;16.80;99.90;;;;;;5040631;28;20213;-92
2022/09/01 09:55:05;;;;;;;2.77;2.57;;;16.70;99.90;;;;;;5040663;28;20209;-92
2022/09/01 09:57:41;;;;;;;3.57;2.50;;;16.70;99.90;;;;;;5041454;28;20589;-92
2022/09/01 10:00:22;;;;;;;2.20;2.00;;;16.70;99.90;;;;;;5043340;28;20228;-92
2022/09/01 10:02:58;;;;;;;2.40;2.20;;;16.70;99.90;;;;;;5040788;28;20462;-92
2022/09/01 10:05:36;;;;;;;2.30;2.10;;;16.60;99.90;;;;;;5043799;28;20227;-92
2022/09/01 10:08:11;;;;;;;3.03;2.60;;;16.60;99.90;;;;;;5039639;28;20243;-93
2022/09/01 10:10:44;;;;;;;4.07;2.13;;;16.60;99.90;;;;;;5047082;28;20232;-92
2022/09/01 10:13:30;;;;;;;2.37;2.17;;;16.60;99.90;;;;;;5057284;28;20244;-92
2022/09/01 10:16:03;;;;;;;3.63;2.33;;;16.60;99.90;;;;;;5057641;28;20231;-92
2022/09/01 10:18:40;;;;;;;3.03;2.00;;;16.60;99.90;;;;;;5054940;28;20219;-93
2022/09/01 10:21:17;;;;;;;2.33;2.13;;;16.50;99.90;;;;;;5054319;28;20267;-92
2022/09/01 10:23:48;;;;;;;1.63;1.53;;;16.50;99.90;;;;;;5057758;28;20192;-92
2022/09/01 10:26:24;;;;;;;2.00;1.90;;;16.50;99.90;;;;;;5057919;28;20260;-93
2022/09/01 10:29:05;;;;;;;2.63;2.00;;;16.60;99.90;;;;;;5056403;28;20262;-92
2022/09/01 10:31:42;;;;;;;6.03;2.50;;;16.60;99.90;;;;;;5052866;28;20212;-92
2022/09/01 10:34:16;;;;;;;2.80;2.57;;;16.60;99.90;;;;;;5043934;28;20251;-91
2022/09/01 10:36:50;;;;;;;2.60;2.40;;;16.60;99.90;;;;;;5041741;28;20239;-92
2022/09/01 10:39:26;;;;;;;3.13;2.83;;;16.60;99.90;;;;;;5046192;28;20228;-93
2022/09/01 10:42:06;;;;;;;3.23;2.80;;;16.70;99.90;;;;;;5063563;28;20196;-93
2022/09/01 10:44:56;;;;;;;5.07;3.30;;;16.70;99.90;;;;;;5061717;28;20231;-93
2022/09/01 10:47:30;;;;;;;3.03;2.73;;;16.60;99.90;;;;;;5060239;28;20208;-93
2022/09/01 10:50:21;;;;;;;3.63;3.17;;;16.70;99.90;;;;;;5059652;28;20204;-93
2022/09/01 10:53:30;;;;;;;4.07;3.30;;;16.70;99.90;;;;;;5058684;28;20236;-93
2022/09/01 10:56:07;;;;;;;3.03;2.73;;;16.60;99.90;;;;;;5050398;28;20212;-94
2022/09/01 10:59:12;;;;;;;4.27;3.10;;;16.70;99.90;;;;;;5058645;28;20576;-93
2022/09/01 11:02:17;;;;;;;2.53;2.33;;;16.70;99.90;;;;;;5057564;28;20215;-93
2022/09/01 11:05:20;;;;;;;3.07;2.60;;;16.70;99.90;;;;;;5087130;22;20246;-91
2022/09/01 11:07:51;;;;;;;3.00;2.70;;;16.70;99.90;;;;;;5037848;28;20209;-92
2022/09/01 11:10:54;;;;;;;3.27;2.30;;;16.70;99.90;;;;;;5022650;28;20699;-92
2022/09/01 11:13:43;;;;;;;2.50;2.30;;;16.70;99.90;;;;;;5036962;28;20228;-92
2022/09/01 11:16:36;;;;;;;2.40;2.20;;;16.80;99.90;;;;;;5056335;28;20208;-94
2022/09/01 11:19:41;;;;;;;2.63;2.30;;;16.80;99.90;;;;;;5058003;28;20197;-93
2022/09/01 11:22:27;;;;;;;2.63;2.43;;;16.90;99.90;;;;;;5057177;28;20366;-92
2022/09/01 11:25:36;;;;;;;2.33;2.13;;;16.90;99.90;;;;;;5058162;28;20208;-92
2022/09/01 11:28:42;;;;;;;2.80;2.37;;;17.00;99.90;;;;;;5050855;28;20260;-94
2022/09/01 11:31:26;;;;;;;3.00;2.30;;;17.00;99.90;;;;;;5057944;28;20604;-94
2022/09/01 11:34:17;;;;;;;3.10;1.97;;;17.10;99.90;;;;;;5057472;28;20291;-94
2022/09/01 11:37:13;;;;;;;2.87;1.80;;;17.10;99.90;;;;;;5057774;28;20357;-94
2022/09/01 11:39:49;;;;;;;2.83;2.17;;;16.90;99.90;;;;;;5057826;28;20211;-92
2022/09/01 11:42:27;;;;;;;2.30;2.13;;;16.90;99.90;;;;;;5057136;28;20215;-91
2022/09/01 11:45:03;;;;;;;3.13;2.43;;;16.90;99.90;;;;;;5057487;28;20231;-92
2022/09/01 11:47:40;;;;;;;3.73;2.30;;;16.80;99.90;;;;;;5057585;28;20258;-90
2022/09/01 11:50:21;;;;;;;2.50;2.30;;;16.80;99.90;;;;;;5057175;28;20208;-92
2022/09/01 11:53:00;;;;;;;2.90;2.60;;;16.70;99.90;;;;;;5056487;28;20216;-92
2022/09/01 11:55:36;;;;;;;5.07;3.60;;;16.70;99.90;;;;;;5056924;28;20708;-91
2022/09/01 11:58:10;;;;;;;3.17;2.90;;;16.70;99.90;;;;;;5057139;28;20346;-91
2022/09/01 12:00:47;;;;;;;4.93;4.50;;;16.60;99.90;;;;;;5057362;28;20223;-91
2022/09/01 12:03:23;;;;;;;5.17;4.60;;;16.60;99.90;;;;;;5039422;28;20204;-94
2022/09/01 12:05:58;;;;;;;4.43;4.10;;;16.50;99.90;;;;;;5056856;28;20269;-93
2022/09/01 12:08:36;;;;;;;5.00;4.50;;;16.40;99.90;;;;;;5059246;28;20273;-92
2022/09/01 12:11:10;;;;;;;5.10;3.90;;;16.30;99.90;;;;;;5059255;28;20200;-92
2022/09/01 12:13:55;;;;;;;4.43;4.07;;;16.30;99.90;;;;;;5056256;28;20227;-93
2022/09/01 12:16:26;;;;;;;6.80;4.50;;;16.30;99.90;;;;;;5040239;28;20307;-92
2022/09/01 12:19:00;;;;;;;4.60;4.20;;;16.30;99.90;;;;;;5041126;28;20253;-92
2022/09/01 12:21:33;;;;;;;4.97;4.47;;;16.30;99.90;;;;;;5037984;28;20216;-92
2022/09/01 12:24:28;;;;;;;4.00;3.70;;;16.40;99.90;;;;;;5040828;28;20923;-92
2022/09/01 12:27:00;;;;;;;4.77;4.27;;;16.30;99.90;;;;;;5040752;28;20247;-92
2022/09/01 12:29:31;;;;;;;5.30;4.07;;;16.40;99.90;;;;;;5043107;28;20236;-93
2022/09/01 12:32:04;;;;;;;5.03;4.40;;;16.40;99.90;;;;;;5039273;28;20629;-93
2022/09/01 12:34:42;;;;;;;5.03;4.50;;;16.40;99.90;;;;;;5039571;28;20232;-92
2022/09/01 12:37:23;;;;;;;4.67;3.77;;;16.40;99.90;;;;;;5039992;28;20235;-92
2022/09/01 12:39:57;;;;;;;4.93;3.87;;;16.50;99.90;;;;;;5040060;28;20205;-92
2022/09/01 12:42:30;;;;;;;4.27;3.97;;;16.40;99.90;;;;;;5039383;28;20228;-91
2022/09/01 12:45:14;;;;;;;4.80;4.00;;;16.50;99.90;;;;;;5024425;28;20205;-92
2022/09/01 12:47:50;;;;;;;6.57;4.87;;;16.60;99.90;;;;;;5039438;28;20213;-92
2022/09/01 12:50:53;;;;;;;5.00;4.47;;;16.60;99.90;;;;;;5039956;28;20197;-92
2022/09/01 12:53:31;;;;;;;5.00;4.60;;;16.50;99.90;;;;;;5034142;28;20283;-92
2022/09/01 12:56:20;;;;;;;6.13;4.87;;;16.40;99.90;;;;;;5039615;28;20244;-92
2022/09/01 12:58:53;;;;;;;5.50;5.00;;;16.40;99.90;;;;;;5039209;28;20244;-92
2022/09/01 13:01:31;;;;;;;5.77;4.63;;;16.40;99.90;;;;;;5039715;28;20626;-93
2022/09/01 13:04:27;;;;;;;5.90;5.30;;;16.40;99.90;;;;;;5039195;28;20271;-92
2022/09/01 13:07:02;;;;;;;5.87;5.13;;;16.50;99.90;;;;;;5040207;28;20217;-92
2022/09/01 13:09:34;;;;;;;5.33;4.57;;;16.40;99.90;;;;;;5039763;28;20213;-92
2022/09/01 13:12:19;;;;;;;5.63;4.47;;;16.40;99.90;;;;;;5021132;28;20205;-91
2022/09/01 13:14:51;;;;;;;5.10;4.60;;;16.40;99.90;;;;;;5039266;28;20241;-92
2022/09/01 13:17:22;;;;;;;4.50;4.10;;;16.40;99.90;;;;;;5039557;28;20209;-92
2022/09/01 13:19:53;;;;;;;6.63;4.80;;;16.50;99.90;;;;;;5039792;28;20233;-92
2022/09/01 13:22:25;;;;;;;6.07;5.10;;;16.40;99.90;;;;;;5039068;28;20197;-92
2022/09/01 13:24:56;;;;;;;5.67;4.10;;;16.30;99.90;;;;;;5039582;28;20217;-92
2022/09/01 13:27:30;;;;;;;5.17;4.67;;;16.40;99.90;;;;;;5039317;28;20716;-92
2022/09/01 13:30:02;;;;;;;4.70;4.30;;;16.40;99.90;;;;;;5039585;28;20573;-91
2022/09/01 13:32:33;;;;;;;4.67;4.23;;;16.40;99.90;;;;;;5037996;28;20216;-92
2022/09/01 13:35:05;;;;;;;5.60;5.00;;;16.50;99.90;;;;;;5039053;28;20240;-92
2022/09/01 13:37:37;;;;;;;5.70;5.07;;;16.50;99.90;;;;;;5038969;28;20279;-92
2022/09/01 13:40:14;;;;;;;5.40;4.70;;;16.30;99.90;;;;;;5039082;28;20220;-92
2022/09/01 13:42:50;;;;;;;5.93;5.30;;;16.40;99.90;;;;;;5038353;28;20228;-92
2022/09/01 13:45:23;;;;;;;5.33;4.83;;;16.40;99.90;;;;;;5041692;28;20223;-92
2022/09/01 13:47:54;;;;;;;5.93;5.33;;;16.40;99.90;;;;;;5021555;28;20204;-92
2022/09/01 13:50:48;;;;;;;4.73;4.30;;;16.40;99.90;;;;;;5040523;28;20251;-92
2022/09/01 13:53:39;;;;;;;4.93;4.43;;;16.50;99.90;;;;;;5037119;28;20321;-92
2022/09/01 13:56:10;;;;;;;5.10;4.60;;;16.50;99.90;;;;;;5043397;28;20343;-92
2022/09/01 13:58:43;;;;;;;5.03;4.17;;;16.50;99.90;;;;;;5041095;28;20236;-92
2022/09/01 14:01:17;;;;;;;4.57;4.17;;;16.60;99.90;;;;;;5040703;28;20255;-92
2022/09/01 14:03:49;;;;;;;7.23;5.50;;;16.60;99.90;;;;;;5042185;28;20220;-92
2022/09/01 14:06:22;;;;;;;5.50;5.00;;;16.40;99.90;;;;;;5024596;28;20221;-91
2022/09/01 14:08:53;;;;;;;5.50;5.00;;;16.40;99.90;;;;;;5040584;28;20235;-91
2022/09/01 14:11:24;;;;;;;5.10;4.70;;;16.50;99.90;;;;;;5037608;28;20697;-96
2022/09/01 14:13:57;;;;;;;5.23;4.73;;;16.40;99.90;;;;;;5038534;28;20233;-92
2022/09/01 14:16:28;;;;;;;6.07;4.93;;;16.40;99.90;;;;;;5038943;28;20252;-92
2022/09/01 14:19:00;;;;;;;8.00;5.27;;;16.40;99.90;;;;;;5038307;28;20243;-93
2022/09/01 14:21:31;;;;;;;4.27;3.87;;;16.40;99.90;;;;;;5037503;28;20611;-92
2022/09/01 14:24:02;;;;;;;6.27;4.57;;;16.50;99.90;;;;;;5040631;28;20224;-92
2022/09/01 14:26:34;;;;;;;6.07;4.93;;;16.60;99.90;;;;;;5038601;28;20205;-92
2022/09/01 14:29:07;;;;;;;5.37;4.43;;;16.60;99.90;;;;;;5043367;28;20654;-92
2022/09/01 14:31:38;;;;;;;5.50;4.80;;;16.70;99.90;;;;;;5042653;28;20204;-92
2022/09/01 14:34:11;;;;;;;5.30;4.43;;;16.60;99.90;;;;;;5037764;28;20219;-92
2022/09/01 14:36:43;;;;;;;6.87;6.27;;;16.60;99.90;;;;;;5038185;28;20279;-92
2022/09/01 14:39:14;;;;;;;6.50;5.83;;;16.60;99.90;;;;;;5020364;28;20252;-92
2022/09/01 14:47:57;;;;;;;6.60;6.00;;;16.40;99.90;;;;;;5031505;28;20202;-92
2022/09/01 14:50:32;;;;;;;6.57;5.90;;;16.30;99.90;;;;;;5030889;28;20292;-92
2022/09/01 14:53:08;;;;;;;6.43;5.83;;;16.50;99.90;;;;;;5031337;28;20201;-92
2022/09/01 14:55:55;;;;;;;6.30;5.13;;;16.50;99.90;;;;;;5029466;28;20704;-92
2022/09/01 14:58:44;;;;;;;5.40;5.00;;;16.60;99.90;;;;;;5030451;28;20233;-92
2022/09/01 15:01:21;;;;;;;7.00;5.90;;;16.60;99.90;;;;;;5029860;28;20209;-92
2022/09/01 15:04:07;;;;;;;6.20;5.67;;;16.60;99.90;;;;;;5023978;28;20205;-92